Ararat, Virginia
Current Conditions -  °F | °C
As of 12:15 AM on Thursday 23 Oct 2014 (Local Time) from KMWK Reporting Station
Clear Clear  
Wind Chill: 52°   Ceiling: Unl
Heat Index: 52°   Visibility: 10mi
Dew Point: 41°   Wind: 13mph
Humidity: 67%   Direction: 320°NW
Pressure: 30.09"   Gusts: 18mph
Location:  36.6°N, 80.51°W
Report Text: KMWK 230415Z AUTO 32011G16KT 10SM CLR 11/05 A3009 RMK AO2 T01100051
Loading
Personal Weather Stations






























Interactive Weather Map
Tropical Storm Tracking
New forecast layout! Learn more

10-Day Weather Forecast

Advertisements
Track Severe Weather on mobile